createdAt,value
2023-01-29T00:03:05.913Z,-0.80
2023-01-29T00:07:17.851Z,-0.88
2023-01-29T00:11:21.674Z,-0.97
2023-01-29T00:15:27.009Z,-1.02
2023-01-29T00:19:30.252Z,-0.89
2023-01-29T00:23:35.253Z,-1.01
2023-01-29T00:27:38.747Z,-1.10
2023-01-29T00:31:42.010Z,-1.06
2023-01-29T00:35:45.765Z,-1.07
2023-01-29T00:39:56.196Z,-0.84
2023-01-29T00:44:20.013Z,-1.03
2023-01-29T00:48:23.953Z,-1.02
2023-01-29T00:52:30.622Z,-0.86
2023-01-29T00:56:37.508Z,-0.81
2023-01-29T01:00:41.391Z,-1.01
2023-01-29T01:04:43.748Z,-1.04
2023-01-29T01:09:07.493Z,-0.97
2023-01-29T01:13:13.998Z,-0.92
2023-01-29T01:17:20.147Z,-0.86
2023-01-29T01:21:27.244Z,-0.92
2023-01-29T01:25:31.038Z,-1.03
2023-01-29T01:29:39.942Z,-0.92
2023-01-29T01:33:54.501Z,-0.87
2023-01-29T01:37:57.714Z,-1.05
2023-01-29T01:42:01.424Z,-0.89
2023-01-29T01:46:06.599Z,-1.05
2023-01-29T01:50:13.347Z,-1.16
2023-01-29T01:54:22.025Z,-1.00
2023-01-29T01:58:28.527Z,-1.01
2023-01-29T02:02:50.901Z,-0.98
2023-01-29T02:07:13.399Z,-1.02
2023-01-29T02:11:28.823Z,-0.97
2023-01-29T02:15:31.982Z,-1.08
2023-01-29T02:19:45.569Z,-0.90
2023-01-29T02:24:06.856Z,-1.09
2023-01-29T02:28:23.811Z,-1.11
2023-01-29T02:32:36.894Z,-1.10
2023-01-29T02:36:45.670Z,-1.04
2023-01-29T02:40:54.036Z,-1.02
2023-01-29T02:45:06.896Z,-1.12
2023-01-29T02:49:13.689Z,-1.23
2023-01-29T02:53:19.124Z,-1.06
2023-01-29T02:57:29.400Z,-1.26
2023-01-29T03:01:40.279Z,-1.23
2023-01-29T03:05:51.299Z,-1.25
2023-01-29T03:09:54.592Z,-1.22
2023-01-29T03:19:23.876Z,-1.33
2023-01-29T03:23:47.378Z,-1.32
2023-01-29T03:28:08.736Z,-1.22
2023-01-29T03:32:12.631Z,-1.30
2023-01-29T03:36:20.642Z,-1.32
2023-01-29T03:40:24.368Z,-1.48
2023-01-29T03:44:35.390Z,-1.50
2023-01-29T03:48:41.780Z,-1.49
2023-01-29T03:52:49.999Z,-1.48
2023-01-29T03:56:59.661Z,-1.53
2023-01-29T04:01:05.361Z,-1.43
2023-01-29T04:05:13.792Z,-1.54
2023-01-29T04:09:22.252Z,-1.77
2023-01-29T04:13:26.839Z,-1.79
2023-01-29T04:17:35.029Z,-1.73
2023-01-29T04:21:38.886Z,-1.87
2023-01-29T04:25:48.727Z,-1.90
2023-01-29T04:30:00.510Z,-2.09
2023-01-29T04:34:20.731Z,-2.04
2023-01-29T04:38:39.432Z,-2.28
2023-01-29T04:42:55.911Z,-2.15
2023-01-29T04:47:07.455Z,-2.28
2023-01-29T04:51:20.872Z,-2.60
2023-01-29T04:55:40.091Z,-3.11
2023-01-29T04:59:50.733Z,-2.44
2023-01-29T05:03:56.649Z,-2.47
2023-01-29T05:08:01.909Z,-2.64
2023-01-29T05:12:06.836Z,-2.52
2023-01-29T05:16:17.713Z,-2.36
2023-01-29T05:20:22.240Z,-2.61
2023-01-29T05:24:27.839Z,-2.92
2023-01-29T05:28:32.000Z,-2.92
2023-01-29T05:32:40.094Z,-2.71
2023-01-29T05:36:50.015Z,-3.09
2023-01-29T05:40:54.459Z,-3.46
2023-01-29T05:45:02.310Z,-3.12
2023-01-29T05:49:08.850Z,-2.98
2023-01-29T05:53:12.547Z,-3.08
2023-01-29T05:57:19.522Z,-3.02
2023-01-29T06:01:28.206Z,-3.40
2023-01-29T06:05:34.075Z,-3.33
2023-01-29T06:09:37.614Z,-2.92
2023-01-29T06:13:41.761Z,-2.75
2023-01-29T06:17:47.294Z,-2.86
2023-01-29T06:21:52.766Z,-3.00
2023-01-29T06:25:56.100Z,-3.16
2023-01-29T06:29:59.382Z,-3.34
2023-01-29T06:34:03.083Z,-3.90
2023-01-29T06:38:07.446Z,-3.59
2023-01-29T06:42:11.257Z,-3.64
2023-01-29T06:46:14.614Z,-3.91
2023-01-29T06:50:19.353Z,-3.83
2023-01-29T06:54:23.942Z,-3.75
2023-01-29T06:58:27.247Z,-3.54
2023-01-29T07:02:31.009Z,-3.31
2023-01-29T07:06:34.647Z,-3.68
2023-01-29T07:10:39.556Z,-3.96
2023-01-29T07:14:42.387Z,-3.82
2023-01-29T07:18:45.847Z,-3.55
2023-01-29T07:22:48.706Z,-3.55
2023-01-29T07:26:53.759Z,-3.99
2023-01-29T07:30:58.336Z,-4.11
2023-01-29T07:35:01.242Z,-3.58
2023-01-29T07:39:04.406Z,-3.91
2023-01-29T07:43:09.378Z,-3.93
2023-01-29T07:47:13.083Z,-3.38
2023-01-29T07:51:18.188Z,-3.33
2023-01-29T07:55:21.007Z,-3.48
2023-01-29T07:59:25.522Z,-3.78
2023-01-29T08:03:28.371Z,-3.77
2023-01-29T08:07:31.269Z,-3.77
2023-01-29T08:11:34.584Z,-3.59
2023-01-29T08:15:39.502Z,-3.45
2023-01-29T08:19:42.483Z,-3.19
2023-01-29T08:23:46.007Z,-2.98
2023-01-29T08:27:49.555Z,-2.89
2023-01-29T08:31:54.641Z,-3.09
2023-01-29T08:35:58.335Z,-2.72
2023-01-29T08:40:01.619Z,-2.65
2023-01-29T08:44:08.239Z,-2.52
2023-01-29T08:48:16.662Z,-2.13
2023-01-29T08:52:23.499Z,-1.81
2023-01-29T08:56:30.781Z,-2.09
2023-01-29T09:00:37.832Z,-1.85
2023-01-29T09:04:47.091Z,-1.65
2023-01-29T09:08:57.129Z,-1.46
2023-01-29T09:13:00.967Z,-1.18
2023-01-29T09:17:03.775Z,-1.01
2023-01-29T09:21:21.870Z,-1.41
2023-01-29T09:25:33.137Z,-0.52
2023-01-29T09:29:37.562Z,-0.54
2023-01-29T09:33:43.178Z,-0.14
2023-01-29T09:37:50.855Z,-0.63
2023-01-29T09:42:03.370Z,-1.05
2023-01-29T09:46:09.898Z,-1.38
2023-01-29T09:50:20.888Z,-0.98
2023-01-29T09:54:26.497Z,-0.83
2023-01-29T09:58:36.185Z,-1.12
2023-01-29T10:03:08.581Z,-0.82
2023-01-29T10:07:26.685Z,-1.02
2023-01-29T10:11:39.667Z,-0.82
2023-01-29T10:15:54.094Z,-0.86
2023-01-29T10:20:22.997Z,-0.91
2023-01-29T10:24:37.277Z,-0.76
2023-01-29T10:28:48.097Z,-0.71
2023-01-29T10:32:52.822Z,-0.67
2023-01-29T10:36:58.162Z,-0.56
2023-01-29T10:45:44.217Z,-0.48
2023-01-29T10:50:20.798Z,-0.74
2023-01-29T10:54:42.806Z,-0.46
2023-01-29T10:58:53.433Z,-0.61
2023-01-29T11:02:58.955Z,-0.43
2023-01-29T11:07:02.940Z,-0.68
2023-01-29T11:11:10.906Z,-0.68
2023-01-29T11:15:26.196Z,-0.74
2023-01-29T11:19:48.255Z,-0.35
2023-01-29T11:24:12.573Z,-0.51
2023-01-29T11:28:19.592Z,-0.42
2023-01-29T11:32:34.389Z,-0.55
2023-01-29T11:36:41.073Z,-0.45
2023-01-29T11:40:46.347Z,-0.32
2023-01-29T11:44:50.547Z,-0.63
2023-01-29T11:49:09.945Z,-0.50
2023-01-29T11:53:36.619Z,-0.65
2023-01-29T11:57:43.529Z,-0.31
2023-01-29T12:01:47.424Z,0.02
2023-01-29T12:05:57.441Z,0.19
2023-01-29T12:10:02.358Z,-0.43
2023-01-29T12:14:07.461Z,0.06
2023-01-29T12:18:16.102Z,0.23
2023-01-29T12:22:23.988Z,-0.02
2023-01-29T12:26:32.896Z,-0.22
2023-01-29T12:30:45.442Z,0.23
2023-01-29T12:34:53.440Z,-0.08
2023-01-29T12:38:59.174Z,-0.09
2023-01-29T12:43:07.710Z,0.25
2023-01-29T12:47:22.706Z,0.81
2023-01-29T12:51:28.323Z,0.97
2023-01-29T12:55:36.235Z,1.12
2023-01-29T12:59:44.037Z,0.68
2023-01-29T13:03:54.370Z,0.78
2023-01-29T13:08:03.398Z,1.18
2023-01-29T13:12:13.625Z,0.96
2023-01-29T13:16:23.194Z,0.56
2023-01-29T13:20:30.236Z,0.12
2023-01-29T13:24:38.321Z,0.17
2023-01-29T13:28:41.818Z,-0.37
2023-01-29T13:32:54.620Z,-0.17
2023-01-29T13:37:01.614Z,0.02
2023-01-29T13:41:09.981Z,-0.07
2023-01-29T13:45:22.351Z,-0.11
2023-01-29T13:49:32.135Z,-0.25
2023-01-29T13:53:38.557Z,-0.38
2023-01-29T13:57:56.011Z,-0.45
2023-01-29T14:02:22.075Z,-0.29
2023-01-29T14:06:48.007Z,-0.43
2023-01-29T14:11:32.953Z,-0.12
2023-01-29T14:15:40.325Z,0.16
2023-01-29T14:19:48.983Z,-0.26
2023-01-29T14:23:54.837Z,0.12
2023-01-29T14:27:58.763Z,-0.18
2023-01-29T14:32:08.490Z,-0.60
2023-01-29T14:36:19.025Z,-0.31
2023-01-29T14:40:30.162Z,-0.45
2023-01-29T14:45:16.199Z,-0.56
2023-01-29T14:50:02.437Z,0.01
2023-01-29T14:54:08.709Z,-0.09
2023-01-29T14:58:16.967Z,-0.15
2023-01-29T15:02:25.530Z,-0.35
2023-01-29T15:06:33.393Z,-0.32
2023-01-29T15:10:43.432Z,-0.30
2023-01-29T15:14:55.179Z,-0.22
2023-01-29T15:19:20.614Z,-0.18
2023-01-29T15:23:27.374Z,-0.42
2023-01-29T15:27:31.342Z,-0.53
2023-01-29T15:31:48.064Z,-0.45
2023-01-29T15:36:06.733Z,-0.54
2023-01-29T15:40:23.518Z,-0.50
2023-01-29T15:44:29.603Z,-0.54
2023-01-29T15:48:43.669Z,-0.65
2023-01-29T15:52:53.515Z,-0.74
2023-01-29T15:56:59.089Z,-0.97
2023-01-29T16:01:06.967Z,-0.89
2023-01-29T16:05:20.876Z,-1.00
2023-01-29T16:09:27.054Z,-1.15
2023-01-29T16:13:31.804Z,-1.25
2023-01-29T16:17:38.922Z,-1.29
2023-01-29T16:21:46.117Z,-1.32
2023-01-29T16:25:51.077Z,-1.34
2023-01-29T16:29:54.574Z,-1.47
2023-01-29T16:33:59.096Z,-1.48
2023-01-29T16:38:17.312Z,-1.36
2023-01-29T16:42:26.511Z,-1.58
2023-01-29T16:46:37.283Z,-1.70
2023-01-29T16:50:54.315Z,-1.58
2023-01-29T16:55:16.987Z,-1.57
2023-01-29T16:59:31.349Z,-1.70
2023-01-29T17:03:35.962Z,-1.79
2023-01-29T17:07:44.187Z,-2.08
2023-01-29T17:11:53.184Z,-2.22
2023-01-29T17:16:03.615Z,-2.29
2023-01-29T17:20:17.511Z,-2.52
2023-01-29T17:24:28.167Z,-2.20
2023-01-29T17:28:34.179Z,-2.56
2023-01-29T17:32:44.987Z,-2.56
2023-01-29T17:36:57.016Z,-2.70
2023-01-29T17:41:06.146Z,-2.44
2023-01-29T17:45:12.221Z,-2.73
2023-01-29T17:49:30.667Z,-2.70
2023-01-29T17:53:45.444Z,-2.77
2023-01-29T17:57:53.116Z,-2.64
2023-01-29T18:01:58.514Z,-2.76
2023-01-29T18:06:02.345Z,-2.60
2023-01-29T18:10:06.766Z,-2.81
2023-01-29T18:14:14.292Z,-2.69
2023-01-29T18:18:23.462Z,-2.83
2023-01-29T18:22:27.853Z,-2.94
2023-01-29T18:26:30.855Z,-2.75
2023-01-29T18:30:34.396Z,-3.10
2023-01-29T18:34:41.504Z,-2.70
2023-01-29T18:38:46.121Z,-2.76
2023-01-29T18:42:52.695Z,-3.05
2023-01-29T18:46:58.672Z,-3.17
2023-01-29T18:51:03.180Z,-3.07
2023-01-29T18:55:07.101Z,-2.88
2023-01-29T18:59:11.939Z,-2.77
2023-01-29T19:03:15.446Z,-2.91
2023-01-29T19:07:19.859Z,-2.56
2023-01-29T19:11:23.728Z,-2.50
2023-01-29T19:15:27.114Z,-2.70
2023-01-29T19:19:31.483Z,-2.48
2023-01-29T19:23:46.695Z,-2.60
2023-01-29T19:27:53.383Z,-2.41
2023-01-29T19:31:56.674Z,-2.56
2023-01-29T19:36:00.783Z,-2.44
2023-01-29T19:40:06.338Z,-2.44
2023-01-29T19:44:09.410Z,-2.47
2023-01-29T19:48:14.763Z,-2.44
2023-01-29T19:52:49.695Z,-2.35
2023-01-29T19:56:55.208Z,-2.59
2023-01-29T20:00:59.374Z,-2.75
2023-01-29T20:05:13.421Z,-2.64
2023-01-29T20:09:18.124Z,-2.36
2023-01-29T20:13:23.562Z,-2.56
2023-01-29T20:17:27.383Z,-2.42
2023-01-29T20:21:31.387Z,-2.64
2023-01-29T20:25:35.966Z,-2.46
2023-01-29T20:29:41.464Z,-2.28
2023-01-29T20:33:44.759Z,-2.21
2023-01-29T20:37:51.596Z,-2.14
2023-01-29T20:41:57.527Z,-2.22
2023-01-29T20:46:04.233Z,-2.10
2023-01-29T20:50:11.053Z,-1.99
2023-01-29T20:54:23.031Z,-1.98
2023-01-29T20:58:27.515Z,-1.90
2023-01-29T21:02:37.553Z,-1.96
2023-01-29T21:06:41.208Z,-1.74
2023-01-29T21:10:46.170Z,-1.61
2023-01-29T21:14:50.167Z,-1.43
2023-01-29T21:19:01.021Z,-1.31
2023-01-29T21:23:10.302Z,-1.37
2023-01-29T21:27:15.902Z,-1.34
2023-01-29T21:31:20.581Z,-1.31
2023-01-29T21:35:26.095Z,-1.27
2023-01-29T21:39:33.350Z,-1.25
2023-01-29T21:43:40.193Z,-1.24
2023-01-29T21:47:44.659Z,-1.27
2023-01-29T21:51:49.081Z,-1.13
2023-01-29T21:55:56.127Z,-1.04
2023-01-29T22:00:00.721Z,-1.18
2023-01-29T22:04:03.786Z,-1.14
2023-01-29T22:08:09.928Z,-1.05
2023-01-29T22:12:13.968Z,-1.10
2023-01-29T22:16:18.733Z,-1.01
2023-01-29T22:20:29.838Z,-0.98
2023-01-29T22:24:36.004Z,-0.96
2023-01-29T22:28:39.754Z,-1.21
2023-01-29T22:32:51.015Z,-1.00
2023-01-29T22:36:55.221Z,-0.95
2023-01-29T22:41:10.869Z,-0.91
2023-01-29T22:45:14.958Z,-0.92
2023-01-29T22:49:23.425Z,-0.97
2023-01-29T22:53:27.533Z,-0.93
2023-01-29T22:57:37.499Z,-0.97
2023-01-29T23:01:41.427Z,-1.14
2023-01-29T23:05:48.078Z,-0.92
2023-01-29T23:09:52.729Z,-0.93
2023-01-29T23:14:06.893Z,-0.91
2023-01-29T23:18:10.645Z,-0.94
2023-01-29T23:22:14.200Z,-0.91
2023-01-29T23:26:35.416Z,-0.93
2023-01-29T23:30:40.699Z,-0.92
2023-01-29T23:34:43.887Z,-1.01
2023-01-29T23:38:48.167Z,-0.90
2023-01-29T23:42:56.975Z,-0.86
2023-01-29T23:47:02.644Z,-0.90
2023-01-29T23:51:07.615Z,-0.95
2023-01-29T23:55:14.390Z,-0.91
2023-01-29T23:59:18.398Z,-0.88
